createdAt,value
2022-09-23T00:01:00.133Z,77.89
2022-09-23T00:03:29.043Z,77.75
2022-09-23T00:06:00.486Z,77.52
2022-09-23T00:08:27.252Z,77.85
2022-09-23T00:10:54.327Z,77.56
2022-09-23T00:13:20.984Z,78.80
2022-09-23T00:15:47.568Z,78.82
2022-09-23T00:18:14.280Z,78.87
2022-09-23T00:20:40.899Z,78.84
2022-09-23T00:23:07.503Z,78.60
2022-09-23T00:25:34.232Z,79.19
2022-09-23T00:28:00.943Z,79.62
2022-09-23T00:30:27.621Z,79.35
2022-09-23T00:32:54.283Z,78.94
2022-09-23T00:35:20.964Z,79.24
2022-09-23T00:37:47.632Z,79.68
2022-09-23T00:40:14.585Z,80.16
2022-09-23T00:42:49.287Z,80.38
2022-09-23T00:45:17.004Z,80.68
2022-09-23T00:47:50.460Z,80.70
2022-09-23T00:50:32.147Z,81.27
2022-09-23T00:53:01.593Z,81.49
2022-09-23T00:55:50.048Z,80.66
2022-09-23T00:58:20.224Z,80.28
2022-09-23T01:00:47.181Z,80.10
2022-09-23T01:03:14.641Z,80.22
2022-09-23T01:05:41.855Z,80.98
2022-09-23T01:08:10.658Z,81.58
2022-09-23T01:10:55.225Z,81.78
2022-09-23T01:13:29.248Z,81.54
2022-09-23T01:16:06.208Z,81.40
2022-09-23T01:18:48.009Z,81.04
2022-09-23T01:21:42.975Z,80.90
2022-09-23T01:24:33.106Z,80.75
2022-09-23T01:27:17.798Z,80.92
2022-09-23T01:29:56.937Z,80.96
2022-09-23T01:32:31.283Z,80.91
2022-09-23T01:35:17.195Z,81.39
2022-09-23T01:37:52.603Z,81.57
2022-09-23T01:40:38.614Z,81.38
2022-09-23T01:43:13.870Z,81.49
2022-09-23T01:45:46.797Z,81.90
2022-09-23T01:48:28.492Z,81.89
2022-09-23T01:51:02.232Z,81.28
2022-09-23T01:53:40.436Z,81.44
2022-09-23T01:56:15.911Z,81.91
2022-09-23T01:58:48.349Z,81.71
2022-09-23T02:01:23.372Z,81.07
2022-09-23T02:03:59.782Z,80.47
2022-09-23T02:06:33.767Z,80.32
2022-09-23T02:09:03.415Z,80.25
2022-09-23T02:11:36.167Z,80.46
2022-09-23T02:14:08.272Z,80.11
2022-09-23T02:16:41.091Z,80.13
2022-09-23T02:19:18.321Z,80.87
2022-09-23T02:21:50.077Z,80.62
2022-09-23T02:24:21.016Z,81.31
2022-09-23T02:26:54.537Z,81.63
2022-09-23T02:29:26.984Z,82.00
2022-09-23T02:32:17.922Z,81.96
2022-09-23T02:35:06.455Z,82.22
2022-09-23T02:37:48.340Z,82.22
2022-09-23T02:40:38.891Z,81.54
2022-09-23T02:43:21.307Z,81.70
2022-09-23T02:45:48.279Z,81.62
2022-09-23T02:48:25.027Z,82.02
2022-09-23T02:50:52.114Z,81.63
2022-09-23T02:53:18.747Z,81.49
2022-09-23T02:55:45.801Z,81.62
2022-09-23T02:58:13.940Z,81.72
2022-09-23T03:01:15.577Z,82.18
2022-09-23T03:03:51.705Z,82.64
2022-09-23T03:06:42.754Z,82.77
2022-09-23T03:09:14.334Z,82.60
2022-09-23T03:11:47.246Z,83.27
2022-09-23T03:14:25.849Z,83.33
2022-09-23T03:17:20.183Z,83.45
2022-09-23T03:19:55.501Z,83.61
2022-09-23T03:22:27.270Z,83.25
2022-09-23T03:24:54.303Z,83.29
2022-09-23T03:27:25.756Z,83.34
2022-09-23T03:29:53.778Z,82.92
2022-09-23T03:32:23.586Z,82.92
2022-09-23T03:34:52.508Z,82.63
2022-09-23T03:37:35.842Z,82.77
2022-09-23T03:40:17.843Z,82.97
2022-09-23T03:42:44.518Z,83.12
2022-09-23T03:45:17.166Z,83.02
2022-09-23T03:47:44.126Z,83.21
2022-09-23T03:50:13.477Z,83.29
2022-09-23T03:52:52.113Z,83.32
2022-09-23T03:55:19.479Z,83.50
2022-09-23T03:57:46.281Z,83.25
2022-09-23T04:00:13.977Z,83.54
2022-09-23T04:02:41.125Z,82.98
2022-09-23T04:05:08.992Z,82.19
2022-09-23T04:07:35.610Z,82.31
2022-09-23T04:10:02.251Z,82.79
2022-09-23T04:12:28.888Z,82.82
2022-09-23T04:14:55.529Z,82.33
2022-09-23T04:17:22.159Z,82.22
2022-09-23T04:19:48.757Z,82.05
2022-09-23T04:22:15.409Z,81.94
2022-09-23T04:24:42.047Z,82.25
2022-09-23T04:27:08.749Z,82.33
2022-09-23T04:29:35.537Z,82.64
2022-09-23T04:32:02.366Z,82.40
2022-09-23T04:34:29.013Z,82.42
2022-09-23T04:36:55.616Z,82.03
2022-09-23T04:39:22.271Z,81.82
2022-09-23T04:41:48.881Z,81.77
2022-09-23T04:44:15.645Z,81.73
2022-09-23T04:46:43.905Z,81.30
2022-09-23T04:49:10.882Z,81.79
2022-09-23T04:51:37.580Z,81.82
2022-09-23T04:54:04.341Z,81.99
2022-09-23T04:56:34.028Z,82.25
2022-09-23T04:59:01.925Z,82.12
2022-09-23T05:01:31.550Z,82.70
2022-09-23T05:04:05.774Z,82.55
2022-09-23T05:06:35.044Z,83.09
2022-09-23T05:09:02.783Z,83.00
2022-09-23T05:11:30.908Z,82.78
2022-09-23T05:13:57.538Z,83.20
2022-09-23T05:16:25.054Z,83.45
2022-09-23T05:18:52.546Z,83.83
2022-09-23T05:21:21.946Z,83.92
2022-09-23T05:23:52.467Z,83.83
2022-09-23T05:26:19.108Z,83.86
2022-09-23T05:28:45.758Z,83.99
2022-09-23T05:31:19.400Z,84.09
2022-09-23T05:33:52.257Z,83.57
2022-09-23T05:36:22.189Z,83.06
2022-09-23T05:38:50.212Z,83.38
2022-09-23T05:41:17.737Z,83.77
2022-09-23T05:43:44.615Z,84.07
2022-09-23T05:46:13.924Z,84.22
2022-09-23T05:48:42.028Z,84.29
2022-09-23T05:51:12.914Z,84.59
2022-09-23T05:53:40.803Z,83.89
2022-09-23T05:56:07.734Z,84.26
2022-09-23T05:58:34.656Z,84.57
2022-09-23T06:01:01.352Z,84.62
2022-09-23T06:03:28.181Z,85.19
2022-09-23T06:05:55.728Z,85.29
2022-09-23T06:08:23.133Z,85.25
2022-09-23T06:10:54.368Z,85.71
2022-09-23T06:13:21.336Z,85.52
2022-09-23T06:15:47.989Z,85.58
2022-09-23T06:18:14.635Z,85.72
2022-09-23T06:20:41.288Z,85.78
2022-09-23T06:23:10.624Z,86.16
2022-09-23T06:25:40.816Z,85.96
2022-09-23T06:28:10.879Z,85.71
2022-09-23T06:30:37.603Z,86.04
2022-09-23T06:33:04.265Z,86.12
2022-09-23T06:35:33.281Z,86.56
2022-09-23T06:38:03.448Z,86.40
2022-09-23T06:40:31.252Z,86.24
2022-09-23T06:43:01.749Z,85.67
2022-09-23T06:45:29.045Z,85.56
2022-09-23T06:47:57.169Z,85.57
2022-09-23T06:50:27.406Z,85.54
2022-09-23T06:52:56.412Z,85.70
2022-09-23T06:55:24.685Z,85.84
2022-09-23T06:57:51.417Z,85.87
2022-09-23T07:00:18.515Z,85.56
2022-09-23T07:02:45.678Z,85.37
2022-09-23T07:05:12.543Z,85.62
2022-09-23T07:07:39.512Z,86.26
2022-09-23T07:10:07.277Z,86.71
2022-09-23T07:12:34.428Z,86.83
2022-09-23T07:15:01.067Z,86.98
2022-09-23T07:17:27.932Z,86.82
2022-09-23T07:19:57.467Z,86.63
2022-09-23T07:22:25.232Z,87.09
2022-09-23T07:24:52.390Z,86.96
2022-09-23T07:27:20.106Z,86.74
2022-09-23T07:29:50.648Z,86.43
2022-09-23T07:32:17.641Z,86.19
2022-09-23T07:34:44.605Z,85.54
2022-09-23T07:37:11.227Z,85.29
2022-09-23T07:39:39.781Z,84.24
2022-09-23T07:42:06.548Z,83.79
2022-09-23T07:44:33.624Z,83.45
2022-09-23T07:47:00.610Z,83.72
2022-09-23T07:49:27.751Z,83.10
2022-09-23T07:51:54.480Z,82.98
2022-09-23T07:54:21.183Z,83.63
2022-09-23T07:56:48.114Z,83.51
2022-09-23T07:59:18.398Z,81.53
2022-09-23T08:01:48.525Z,82.18
2022-09-23T08:04:32.830Z,80.06
2022-09-23T08:07:01.877Z,80.45
2022-09-23T08:09:34.464Z,80.50
2022-09-23T08:12:01.462Z,79.52
2022-09-23T08:14:28.197Z,78.03
2022-09-23T08:16:54.834Z,79.03
2022-09-23T08:19:21.585Z,77.86
2022-09-23T08:21:48.281Z,75.66
2022-09-23T08:24:17.202Z,77.32
2022-09-23T08:26:48.169Z,75.04
2022-09-23T08:29:16.710Z,73.40
2022-09-23T08:31:43.768Z,73.43
2022-09-23T08:34:10.654Z,72.59
2022-09-23T08:36:37.408Z,72.12
2022-09-23T08:39:05.128Z,71.03
2022-09-23T08:41:36.461Z,70.79
2022-09-23T08:44:05.288Z,70.06
2022-09-23T08:46:35.899Z,69.43
2022-09-23T08:49:02.550Z,69.55
2022-09-23T08:51:35.974Z,69.06
2022-09-23T08:54:02.781Z,68.69
2022-09-23T08:56:30.697Z,67.98
2022-09-23T08:59:00.206Z,68.20
2022-09-23T09:01:52.630Z,67.63
2022-09-23T09:04:28.018Z,67.01
2022-09-23T09:07:31.752Z,66.62
2022-09-23T09:10:11.906Z,66.65
2022-09-23T09:12:52.769Z,65.89
2022-09-23T09:15:27.445Z,66.01
2022-09-23T09:18:01.330Z,66.27
2022-09-23T09:20:45.656Z,66.08
2022-09-23T09:23:22.905Z,65.58
2022-09-23T09:25:51.415Z,65.86
2022-09-23T09:28:36.432Z,66.07
2022-09-23T09:31:15.847Z,66.03
2022-09-23T09:33:51.615Z,65.84
2022-09-23T09:36:23.887Z,65.45
2022-09-23T09:38:51.326Z,65.52
2022-09-23T09:41:21.411Z,65.92
2022-09-23T09:43:57.691Z,64.90
2022-09-23T09:46:29.453Z,65.19
2022-09-23T09:48:57.114Z,65.00
2022-09-23T09:51:25.256Z,64.27
2022-09-23T09:53:55.801Z,63.63
2022-09-23T09:56:31.319Z,63.51
2022-09-23T09:59:06.702Z,63.66
2022-09-23T10:01:34.993Z,62.79
2022-09-23T10:04:04.370Z,62.91
2022-09-23T10:06:33.750Z,62.08
2022-09-23T10:09:13.983Z,61.64
2022-09-23T10:11:41.718Z,60.98
2022-09-23T10:14:20.383Z,60.88
2022-09-23T10:16:49.034Z,60.63
2022-09-23T10:19:26.514Z,59.95
2022-09-23T10:21:58.761Z,59.84
2022-09-23T10:24:30.536Z,58.73
2022-09-23T10:27:09.032Z,58.54
2022-09-23T10:29:47.875Z,58.20
2022-09-23T10:32:30.202Z,58.10
2022-09-23T10:35:03.905Z,57.42
2022-09-23T10:37:32.670Z,57.40
2022-09-23T10:40:18.876Z,56.53
2022-09-23T10:43:17.181Z,56.36
2022-09-23T10:46:07.065Z,55.34
2022-09-23T10:48:51.590Z,56.06
2022-09-23T10:51:46.882Z,55.14
2022-09-23T10:54:25.374Z,54.41
2022-09-23T10:57:00.709Z,53.61
2022-09-23T10:59:28.067Z,53.64
2022-09-23T11:02:40.167Z,53.08
2022-09-23T11:05:18.807Z,52.30
2022-09-23T11:07:45.360Z,51.79
2022-09-23T11:10:48.859Z,51.50
2022-09-23T11:13:44.463Z,52.00
2022-09-23T11:16:37.260Z,50.76
2022-09-23T11:19:45.895Z,50.04
2022-09-23T11:22:36.275Z,50.06
2022-09-23T11:25:28.644Z,50.19
2022-09-23T11:28:21.547Z,50.53
2022-09-23T11:30:51.021Z,50.39
2022-09-23T11:33:46.617Z,50.57
2022-09-23T11:36:24.860Z,49.59
2022-09-23T11:38:52.596Z,49.30
2022-09-23T11:41:39.102Z,47.87
2022-09-23T11:44:18.097Z,47.72
2022-09-23T11:46:52.869Z,46.85
2022-09-23T11:49:32.678Z,48.70
2022-09-23T11:52:06.501Z,48.51
2022-09-23T11:54:54.405Z,46.99
2022-09-23T11:57:25.564Z,47.17
2022-09-23T11:59:56.608Z,46.57
2022-09-23T12:02:30.915Z,46.66
2022-09-23T12:05:03.227Z,46.57
2022-09-23T12:07:46.978Z,45.92
2022-09-23T12:10:14.461Z,45.91
2022-09-23T12:13:06.553Z,48.16
2022-09-23T12:16:10.729Z,47.64
2022-09-23T12:19:01.088Z,46.79
2022-09-23T12:21:51.000Z,46.31
2022-09-23T12:24:48.192Z,43.98
2022-09-23T12:27:29.726Z,44.36
2022-09-23T12:30:06.247Z,44.63
2022-09-23T12:32:33.265Z,43.90
2022-09-23T12:35:00.607Z,44.02
2022-09-23T12:37:35.670Z,43.50
2022-09-23T12:40:09.462Z,43.55
2022-09-23T12:42:41.575Z,43.89
2022-09-23T12:45:28.266Z,42.90
2022-09-23T12:47:54.976Z,43.42
2022-09-23T12:50:50.905Z,42.52
2022-09-23T12:53:54.981Z,42.85
2022-09-23T12:56:29.891Z,42.22
2022-09-23T12:59:01.394Z,42.06
2022-09-23T13:01:28.730Z,42.07
2022-09-23T13:04:15.828Z,41.09
2022-09-23T13:06:43.384Z,41.42
2022-09-23T13:09:24.938Z,42.12
2022-09-23T13:11:52.962Z,42.49
2022-09-23T13:14:27.387Z,42.18
2022-09-23T13:16:56.228Z,41.86
2022-09-23T13:19:25.876Z,41.50
2022-09-23T13:22:09.265Z,41.29
2022-09-23T13:24:42.109Z,43.11
2022-09-23T13:27:11.681Z,42.21
2022-09-23T13:29:45.237Z,41.92
2022-09-23T13:32:19.333Z,41.84
2022-09-23T13:34:58.262Z,41.12
2022-09-23T13:37:49.794Z,42.06
2022-09-23T13:40:18.212Z,41.44
2022-09-23T13:42:48.442Z,41.31
2022-09-23T13:45:22.884Z,41.57
2022-09-23T13:47:50.253Z,41.39
2022-09-23T13:50:19.838Z,40.80
2022-09-23T13:52:51.554Z,40.96
2022-09-23T13:55:38.992Z,41.75
2022-09-23T13:58:35.506Z,41.53
2022-09-23T14:01:02.611Z,42.24
2022-09-23T14:03:37.136Z,41.74
2022-09-23T14:06:15.363Z,41.69
2022-09-23T14:08:47.887Z,41.37
2022-09-23T14:11:18.959Z,41.44
2022-09-23T14:13:47.305Z,41.05
2022-09-23T14:16:15.697Z,41.55
2022-09-23T14:18:47.361Z,41.04
2022-09-23T14:21:36.010Z,42.12
2022-09-23T14:24:24.184Z,42.93
2022-09-23T14:26:56.887Z,42.87
2022-09-23T14:29:29.484Z,43.33
2022-09-23T14:32:00.285Z,43.18
2022-09-23T14:34:48.490Z,43.25
2022-09-23T14:37:56.378Z,43.17
2022-09-23T14:40:32.065Z,43.74
2022-09-23T14:43:05.707Z,43.62
2022-09-23T14:45:37.748Z,44.00
2022-09-23T14:48:10.470Z,43.76
2022-09-23T14:50:37.227Z,43.90
2022-09-23T14:53:04.707Z,44.91
2022-09-23T14:55:31.577Z,45.01
2022-09-23T14:58:04.767Z,45.49
2022-09-23T15:00:31.670Z,45.32
2022-09-23T15:03:03.606Z,45.00
2022-09-23T15:05:39.054Z,45.76
2022-09-23T15:08:06.359Z,45.64
2022-09-23T15:10:37.621Z,46.08
2022-09-23T15:13:09.590Z,46.78
2022-09-23T15:15:36.482Z,47.08
2022-09-23T15:18:05.482Z,48.05
2022-09-23T15:20:32.367Z,47.34
2022-09-23T15:22:59.004Z,48.09
2022-09-23T15:25:28.204Z,48.03
2022-09-23T15:28:03.345Z,48.88
2022-09-23T15:30:30.717Z,49.67
2022-09-23T15:32:57.441Z,49.12
2022-09-23T15:35:27.805Z,49.49
2022-09-23T15:37:58.295Z,47.80
2022-09-23T15:40:36.357Z,48.90
2022-09-23T15:43:20.991Z,47.69
2022-09-23T15:45:53.314Z,48.01
2022-09-23T15:48:26.203Z,48.19
2022-09-23T15:50:54.422Z,48.55
2022-09-23T15:53:24.057Z,50.41
2022-09-23T15:55:51.725Z,49.03
2022-09-23T15:58:19.294Z,50.04
2022-09-23T16:00:47.880Z,45.51
2022-09-23T16:03:16.681Z,48.71
2022-09-23T16:05:46.942Z,50.39
2022-09-23T16:08:14.696Z,50.18
2022-09-23T16:10:42.485Z,51.41
2022-09-23T16:13:13.861Z,51.82
2022-09-23T16:15:41.442Z,51.98
2022-09-23T16:18:09.489Z,52.60
2022-09-23T16:20:38.830Z,50.94
2022-09-23T16:23:18.454Z,51.17
2022-09-23T16:25:45.052Z,51.91
2022-09-23T16:28:11.669Z,51.76
2022-09-23T16:30:38.344Z,52.04
2022-09-23T16:33:04.945Z,53.00
2022-09-23T16:35:33.695Z,52.82
2022-09-23T16:38:00.289Z,51.98
2022-09-23T16:40:27.079Z,51.76
2022-09-23T16:42:55.100Z,52.55
2022-09-23T16:45:23.199Z,52.82
2022-09-23T16:47:54.432Z,54.15
2022-09-23T16:50:22.833Z,53.99
2022-09-23T16:52:55.266Z,55.26
2022-09-23T16:55:22.568Z,57.56
2022-09-23T16:57:49.197Z,56.28
2022-09-23T17:00:35.108Z,56.42
2022-09-23T17:03:22.725Z,57.80
2022-09-23T17:05:49.840Z,58.43
2022-09-23T17:08:17.704Z,58.72
2022-09-23T17:10:46.066Z,59.73
2022-09-23T17:13:15.694Z,60.25
2022-09-23T17:15:44.128Z,61.00
2022-09-23T17:18:10.785Z,61.18
2022-09-23T17:20:38.777Z,61.82
2022-09-23T17:23:06.054Z,61.50
2022-09-23T17:25:34.116Z,62.00
2022-09-23T17:28:01.009Z,62.61
2022-09-23T17:30:28.902Z,62.67
2022-09-23T17:32:55.509Z,63.11
2022-09-23T17:35:22.155Z,63.38
2022-09-23T17:37:48.852Z,63.35
2022-09-23T17:40:15.706Z,63.75
2022-09-23T17:42:42.543Z,63.64
2022-09-23T17:45:12.522Z,64.60
2022-09-23T17:47:41.922Z,64.94
2022-09-23T17:50:08.835Z,64.65
2022-09-23T17:52:35.467Z,65.38
2022-09-23T17:55:02.381Z,65.63
2022-09-23T17:57:28.972Z,65.31
2022-09-23T17:59:56.193Z,65.72
2022-09-23T18:02:22.952Z,66.28
2022-09-23T18:04:49.864Z,66.51
2022-09-23T18:07:16.506Z,66.61
2022-09-23T18:09:43.153Z,66.87
2022-09-23T18:12:09.840Z,67.64
2022-09-23T18:14:36.468Z,68.09
2022-09-23T18:17:03.122Z,68.72
2022-09-23T18:19:29.766Z,68.22
2022-09-23T18:21:57.383Z,68.21
2022-09-23T18:24:33.171Z,68.21
2022-09-23T18:27:00.995Z,68.81
2022-09-23T18:29:27.652Z,69.89
2022-09-23T18:31:54.546Z,69.92
2022-09-23T18:34:21.465Z,70.63
2022-09-23T18:36:48.241Z,70.19
2022-09-23T18:39:14.972Z,70.06
2022-09-23T18:41:41.589Z,71.13
2022-09-23T18:44:08.827Z,71.39
2022-09-23T18:46:35.675Z,71.67
2022-09-23T18:49:21.420Z,72.16
2022-09-23T18:51:50.539Z,71.79
2022-09-23T18:54:17.137Z,71.91
2022-09-23T18:56:44.742Z,72.51
2022-09-23T18:59:14.597Z,72.18
2022-09-23T19:01:41.308Z,72.36
2022-09-23T19:04:08.333Z,72.68
2022-09-23T19:06:35.609Z,73.25
2022-09-23T19:09:02.347Z,73.24
2022-09-23T19:11:28.973Z,73.41
2022-09-23T19:13:58.033Z,74.04
2022-09-23T19:16:25.910Z,74.25
2022-09-23T19:18:53.570Z,73.84
2022-09-23T19:21:22.360Z,75.37
2022-09-23T19:23:54.050Z,75.21
2022-09-23T19:26:23.875Z,75.25
2022-09-23T19:28:55.561Z,75.41
2022-09-23T19:31:38.602Z,75.46
2022-09-23T19:34:10.225Z,75.41
2022-09-23T19:36:38.996Z,75.70
2022-09-23T19:39:08.605Z,75.39
2022-09-23T19:41:35.580Z,75.81
2022-09-23T19:44:03.434Z,75.81
2022-09-23T19:46:33.619Z,75.76
2022-09-23T19:49:00.799Z,75.99
2022-09-23T19:51:28.377Z,76.16
2022-09-23T19:53:55.006Z,75.97
2022-09-23T19:56:21.788Z,76.07
2022-09-23T19:58:54.285Z,76.09
2022-09-23T20:01:22.322Z,76.54
2022-09-23T20:03:49.759Z,76.44
2022-09-23T20:06:17.194Z,76.68
2022-09-23T20:08:44.610Z,76.70
2022-09-23T20:11:27.609Z,76.59
2022-09-23T20:14:01.841Z,77.00
2022-09-23T20:16:37.048Z,76.38
2022-09-23T20:19:04.952Z,77.13
2022-09-23T20:21:32.076Z,77.32
2022-09-23T20:23:58.978Z,77.33
2022-09-23T20:26:44.524Z,77.60
2022-09-23T20:29:11.411Z,77.52
2022-09-23T20:31:40.413Z,76.83
2022-09-23T20:34:08.381Z,77.80
2022-09-23T20:36:36.100Z,78.28
2022-09-23T20:39:06.012Z,78.75
2022-09-23T20:41:36.810Z,78.57
2022-09-23T20:44:06.293Z,77.94
2022-09-23T20:46:33.206Z,78.20
2022-09-23T20:48:59.973Z,77.93
2022-09-23T20:51:26.749Z,78.36
2022-09-23T20:53:53.409Z,78.47
2022-09-23T20:56:21.378Z,78.53
2022-09-23T20:58:48.756Z,78.70
2022-09-23T21:01:15.977Z,78.70
2022-09-23T21:03:44.901Z,78.74
2022-09-23T21:06:13.992Z,78.86
2022-09-23T21:08:41.742Z,78.73
2022-09-23T21:11:11.721Z,79.14
2022-09-23T21:13:38.802Z,79.54
2022-09-23T21:16:08.314Z,79.79
2022-09-23T21:18:38.155Z,79.65
2022-09-23T21:21:05.964Z,79.68
2022-09-23T21:23:38.300Z,79.14
2022-09-23T21:26:12.925Z,79.15
2022-09-23T21:28:42.288Z,79.25
2022-09-23T21:31:17.764Z,79.64
2022-09-23T21:33:44.418Z,79.85
2022-09-23T21:36:11.016Z,79.72
2022-09-23T21:38:37.999Z,80.02
2022-09-23T21:41:07.234Z,80.94
2022-09-23T21:43:35.548Z,80.69
2022-09-23T21:46:04.829Z,81.20
2022-09-23T21:48:33.691Z,81.12
2022-09-23T21:51:05.761Z,80.62
2022-09-23T21:53:33.778Z,80.59
2022-09-23T21:56:19.574Z,80.95
2022-09-23T21:58:47.526Z,80.97
2022-09-23T22:01:19.564Z,81.28
2022-09-23T22:03:52.699Z,80.75
2022-09-23T22:06:22.526Z,80.43
2022-09-23T22:08:51.306Z,80.57
2022-09-23T22:11:41.620Z,80.96
2022-09-23T22:14:10.999Z,80.78
2022-09-23T22:16:38.540Z,81.65
2022-09-23T22:19:06.947Z,82.16
2022-09-23T22:21:35.756Z,82.50
2022-09-23T22:24:03.852Z,82.45
2022-09-23T22:26:38.493Z,82.36
2022-09-23T22:29:25.638Z,81.91
2022-09-23T22:32:11.341Z,81.69
2022-09-23T22:34:49.631Z,81.47
2022-09-23T22:37:25.696Z,81.48
2022-09-23T22:39:52.949Z,81.17
2022-09-23T22:42:22.561Z,80.85
2022-09-23T22:44:49.923Z,80.89
2022-09-23T22:47:18.181Z,81.22
2022-09-23T22:49:46.285Z,81.37
2022-09-23T22:52:14.999Z,81.37
2022-09-23T22:54:41.857Z,81.49
2022-09-23T22:57:09.221Z,81.34
2022-09-23T22:59:36.021Z,81.42
2022-09-23T23:02:03.362Z,81.72
2022-09-23T23:04:30.261Z,81.58
2022-09-23T23:06:58.627Z,81.97
2022-09-23T23:09:25.289Z,81.97
2022-09-23T23:11:51.924Z,82.43
2022-09-23T23:14:18.989Z,82.94
2022-09-23T23:16:46.223Z,83.25
2022-09-23T23:19:16.480Z,83.46
2022-09-23T23:21:43.745Z,83.60
2022-09-23T23:24:15.493Z,83.59
2022-09-23T23:26:42.850Z,83.26
2022-09-23T23:29:11.127Z,83.49
2022-09-23T23:31:37.984Z,84.31
2022-09-23T23:34:05.295Z,84.34
2022-09-23T23:36:31.926Z,84.37
2022-09-23T23:38:58.705Z,84.55
2022-09-23T23:41:25.297Z,84.75
2022-09-23T23:43:57.156Z,84.76
2022-09-23T23:46:28.338Z,84.35
2022-09-23T23:48:55.826Z,84.33
2022-09-23T23:51:23.365Z,83.77
2022-09-23T23:53:50.104Z,83.47
2022-09-23T23:56:18.744Z,83.76
2022-09-23T23:58:45.451Z,84.12
